Dabolt, Kentucky
Current Conditions -  °F | °C
As of 3:53 PM on Thursday 18 Dec 2014 (Local Time) from KLOZ Reporting Station
Overcast Overcast  
Wind Chill: 37°   Ceiling: 7000
Heat Index: 37°   Visibility: 10mi
Dew Point: 25°   Wind: 0mph
Humidity: 62%   Direction: NA
Pressure: 30.17"   Gusts: NA
Location:  37.34°N, 84.03°W
Report Text: KLOZ 182053Z AUTO 00000KT 10SM SCT050 OVC070 03/M04 A3017 RMK AO2 SLP225 T00281039 58004
Loading
Personal Weather Stations






























Interactive Weather Map New forecast layout! Learn more

10-Day Weather Forecast

Advertisements
Track Severe Weather on mobile